Iquitos, Peru
Current Conditions -  °F | °C
As of 4:00 PM on Sunday 23 Nov 2014 (Local Time) from SPQT Reporting Station
Scattered Clouds Scattered Clouds  
Wind Chill: 90°   Ceiling: Unl
Heat Index: 100°   Visibility: 6mi
Dew Point: 75°   Wind: 9mph
Humidity: 62%   Direction: 50°NE
Pressure: 29.68"   Gusts: NA
Location:  3.75°S, 73.2°W
Report Text: SPQT 232100Z 05008KT 9999 SCT020 32/24 Q1005 NOSIG PP000
Loading
Personal Weather Stations






























Interactive Weather Map New forecast layout! Learn more

10-Day Weather Forecast

Advertisements
Track Severe Weather on mobile